createdAt,value
2019-01-12T00:01:44.868Z,32.02
2019-01-12T00:03:53.198Z,31.86
2019-01-12T00:06:00.303Z,32.20
2019-01-12T00:08:07.614Z,32.13
2019-01-12T00:10:14.883Z,32.18
2019-01-12T00:12:22.529Z,32.47
2019-01-12T00:14:33.945Z,32.44
2019-01-12T00:16:41.098Z,32.28
2019-01-12T00:18:48.439Z,32.01
2019-01-12T00:20:55.973Z,32.78
2019-01-12T00:23:03.976Z,32.49
2019-01-12T00:25:11.458Z,32.94
2019-01-12T00:27:18.695Z,32.77
2019-01-12T00:29:25.816Z,32.62
2019-01-12T00:31:41.764Z,32.48
2019-01-12T00:33:49.269Z,32.70
2019-01-12T00:36:02.939Z,32.71
2019-01-12T00:38:10.858Z,32.88
2019-01-12T00:40:18.240Z,32.58
2019-01-12T00:42:26.357Z,32.84
2019-01-12T00:44:34.296Z,32.64
2019-01-12T00:46:41.600Z,33.61
2019-01-12T00:48:48.706Z,33.46
2019-01-12T00:50:56.536Z,33.17
2019-01-12T00:53:03.790Z,32.57
2019-01-12T00:55:11.142Z,32.89
2019-01-12T00:57:18.480Z,33.03
2019-01-12T00:59:26.090Z,32.35
2019-01-12T01:01:33.426Z,32.74
2019-01-12T01:03:41.226Z,33.08
2019-01-12T01:05:48.346Z,32.89
2019-01-12T01:07:55.637Z,32.89
2019-01-12T01:10:03.383Z,32.12
2019-01-12T01:12:10.689Z,32.61
2019-01-12T01:14:34.061Z,32.66
2019-01-12T01:16:36.959Z,32.56
2019-01-12T01:18:44.094Z,32.46
2019-01-12T01:20:51.310Z,32.11
2019-01-12T01:23:18.713Z,32.02
2019-01-12T01:25:26.790Z,31.87
2019-01-12T01:27:34.100Z,31.76
2019-01-12T01:29:41.406Z,31.61
2019-01-12T01:31:48.592Z,31.68
2019-01-12T01:33:55.976Z,31.65
2019-01-12T01:36:03.007Z,31.38
2019-01-12T01:38:10.447Z,31.56
2019-01-12T01:40:19.496Z,31.94
2019-01-12T01:42:26.528Z,32.12
2019-01-12T01:44:34.102Z,32.22
2019-01-12T01:46:42.814Z,31.82
2019-01-12T01:48:50.026Z,32.09
2019-01-12T01:50:57.488Z,31.54
2019-01-12T01:53:05.997Z,31.02
2019-01-12T01:55:14.053Z,31.29
2019-01-12T01:57:21.400Z,31.01
2019-01-12T01:59:28.851Z,31.25
2019-01-12T02:01:38.637Z,31.37
2019-01-12T02:03:46.317Z,31.33
2019-01-12T02:05:53.655Z,31.06
2019-01-12T02:08:01.100Z,30.92
2019-01-12T02:10:11.063Z,31.10
2019-01-12T02:12:18.535Z,31.10
2019-01-12T02:14:28.007Z,31.13
2019-01-12T02:16:35.716Z,31.26
2019-01-12T02:18:43.520Z,31.45
2019-01-12T02:20:52.014Z,31.49
2019-01-12T02:22:59.367Z,31.33
2019-01-12T02:25:07.199Z,31.39
2019-01-12T02:27:14.924Z,31.44
2019-01-12T02:29:22.750Z,31.31
2019-01-12T02:31:30.468Z,31.31
2019-01-12T02:33:39.491Z,31.43
2019-01-12T02:35:48.694Z,31.12
2019-01-12T02:37:56.468Z,31.18
2019-01-12T02:40:04.207Z,30.91
2019-01-12T02:42:11.305Z,30.63
2019-01-12T02:44:18.689Z,30.76
2019-01-12T02:46:25.868Z,30.71
2019-01-12T02:48:33.049Z,30.52
2019-01-12T02:50:41.713Z,30.73
2019-01-12T02:52:48.905Z,30.66
2019-01-12T02:54:56.232Z,30.71
2019-01-12T02:57:03.790Z,30.69
2019-01-12T02:59:14.504Z,30.54
2019-01-12T03:01:21.646Z,30.68
2019-01-12T03:03:31.504Z,30.43
2019-01-12T03:05:38.586Z,30.87
2019-01-12T03:07:46.056Z,30.66
2019-01-12T03:09:53.280Z,30.49
2019-01-12T03:12:20.142Z,30.48
2019-01-12T03:14:47.834Z,30.26
2019-01-12T03:16:55.505Z,30.75
2019-01-12T03:19:03.195Z,30.30
2019-01-12T03:21:11.400Z,30.49
2019-01-12T03:23:20.639Z,30.91
2019-01-12T03:25:32.482Z,30.51
2019-01-12T03:27:39.669Z,31.05
2019-01-12T03:29:47.531Z,31.93
2019-01-12T03:31:59.850Z,32.88
2019-01-12T03:34:07.525Z,32.62
2019-01-12T03:36:14.667Z,35.28
2019-01-12T03:38:23.431Z,34.90
2019-01-12T03:40:31.919Z,31.29
2019-01-12T03:42:39.958Z,31.02
2019-01-12T03:44:49.091Z,31.51
2019-01-12T03:46:56.850Z,30.82
2019-01-12T03:49:04.027Z,30.92
2019-01-12T03:51:11.581Z,30.89
2019-01-12T03:53:19.527Z,30.57
2019-01-12T03:55:26.887Z,30.60
2019-01-12T03:57:34.320Z,30.49
2019-01-12T03:59:41.667Z,30.45
2019-01-12T04:01:49.848Z,30.90
2019-01-12T04:03:57.236Z,30.66
2019-01-12T04:06:04.410Z,30.74
2019-01-12T04:08:11.892Z,30.81
2019-01-12T04:10:19.370Z,31.00
2019-01-12T04:12:28.485Z,31.23
2019-01-12T04:14:36.345Z,31.18
2019-01-12T04:16:43.834Z,31.20
2019-01-12T04:18:51.162Z,31.26
2019-01-12T04:20:58.371Z,31.18
2019-01-12T04:23:05.937Z,31.28
2019-01-12T04:25:13.159Z,31.30
2019-01-12T04:27:20.557Z,30.94
2019-01-12T04:30:09.605Z,31.19
2019-01-12T04:32:59.118Z,31.32
2019-01-12T04:34:56.411Z,30.96
2019-01-12T04:37:09.313Z,31.23
2019-01-12T04:39:25.475Z,31.57
2019-01-12T04:42:21.585Z,31.54
2019-01-12T04:44:34.637Z,31.82
2019-01-12T04:46:50.252Z,33.59
2019-01-12T04:49:07.170Z,31.88
2019-01-12T04:51:26.927Z,32.44
2019-01-12T04:53:50.418Z,31.93
2019-01-12T04:56:07.526Z,31.54
2019-01-12T04:58:44.273Z,31.43
2019-01-12T05:00:56.009Z,30.98
2019-01-12T05:03:17.093Z,31.00
2019-01-12T05:05:30.038Z,30.64
2019-01-12T05:07:45.484Z,30.62
2019-01-12T05:10:02.863Z,30.79
2019-01-12T05:12:16.302Z,31.17
2019-01-12T05:14:28.693Z,30.88
2019-01-12T05:16:47.186Z,30.96
2019-01-12T05:18:58.216Z,30.98
2019-01-12T05:21:12.443Z,31.10
2019-01-12T05:23:34.691Z,30.96
2019-01-12T05:25:55.916Z,31.27
2019-01-12T05:28:09.811Z,31.11
2019-01-12T05:30:27.935Z,30.96
2019-01-12T05:32:40.744Z,31.35
2019-01-12T05:35:00.309Z,32.27
2019-01-12T05:37:08.920Z,32.11
2019-01-12T05:39:16.969Z,32.85
2019-01-12T05:41:25.144Z,32.78
2019-01-12T05:43:33.864Z,32.04
2019-01-12T05:45:41.772Z,31.88
2019-01-12T05:47:49.110Z,31.71
2019-01-12T05:49:56.172Z,30.85
2019-01-12T05:52:04.013Z,30.80
2019-01-12T05:54:11.566Z,30.70
2019-01-12T05:56:19.917Z,30.99
2019-01-12T05:58:28.433Z,30.83
2019-01-12T06:00:36.465Z,30.69
2019-01-12T06:02:43.917Z,30.70
2019-01-12T06:04:51.314Z,30.56
2019-01-12T06:06:59.030Z,31.01
2019-01-12T06:09:10.379Z,31.22
2019-01-12T06:11:18.106Z,31.32
2019-01-12T06:13:25.589Z,30.96
2019-01-12T06:15:38.038Z,31.69
2019-01-12T06:17:45.301Z,31.60
2019-01-12T06:19:53.875Z,31.52
2019-01-12T06:22:02.273Z,32.12
2019-01-12T06:24:09.514Z,32.62
2019-01-12T06:26:16.827Z,32.44
2019-01-12T06:28:24.571Z,31.44
2019-01-12T06:30:32.297Z,31.39
2019-01-12T06:32:40.136Z,31.35
2019-01-12T06:34:47.226Z,31.52
2019-01-12T06:36:54.565Z,31.77
2019-01-12T06:39:01.966Z,31.50
2019-01-12T06:41:09.816Z,31.54
2019-01-12T06:43:17.764Z,31.72
2019-01-12T06:45:26.143Z,31.97
2019-01-12T06:47:33.306Z,31.72
2019-01-12T06:49:41.097Z,32.03
2019-01-12T06:51:48.459Z,31.73
2019-01-12T06:53:55.887Z,31.98
2019-01-12T06:56:03.038Z,32.06
2019-01-12T06:58:11.222Z,32.20
2019-01-12T07:00:20.823Z,32.11
2019-01-12T07:02:28.159Z,32.24
2019-01-12T07:04:35.275Z,32.25
2019-01-12T07:06:42.527Z,32.36
2019-01-12T07:08:50.416Z,32.30
2019-01-12T07:10:57.671Z,32.17
2019-01-12T07:13:05.051Z,31.87
2019-01-12T07:15:13.572Z,32.04
2019-01-12T07:17:20.755Z,33.52
2019-01-12T07:19:28.072Z,32.07
2019-01-12T07:21:35.602Z,31.59
2019-01-12T07:23:42.903Z,32.50
2019-01-12T07:25:50.351Z,32.57
2019-01-12T07:27:57.532Z,32.45
2019-01-12T07:30:05.122Z,32.30
2019-01-12T07:32:12.354Z,33.22
2019-01-12T07:34:19.727Z,31.93
2019-01-12T07:36:27.187Z,31.84
2019-01-12T07:38:34.606Z,31.91
2019-01-12T07:40:41.771Z,32.10
2019-01-12T07:42:49.024Z,32.14
2019-01-12T07:44:56.430Z,31.83
2019-01-12T07:47:03.508Z,31.85
2019-01-12T07:49:10.724Z,31.81
2019-01-12T07:51:18.008Z,31.93
2019-01-12T07:53:25.187Z,32.02
2019-01-12T07:55:32.323Z,32.04
2019-01-12T07:57:39.568Z,32.02
2019-01-12T07:59:48.085Z,31.93
2019-01-12T08:01:55.109Z,32.11
2019-01-12T08:04:02.539Z,32.06
2019-01-12T08:06:10.245Z,32.45
2019-01-12T08:08:18.323Z,32.33
2019-01-12T08:10:27.194Z,32.22
2019-01-12T08:12:34.335Z,32.22
2019-01-12T08:14:41.742Z,32.22
2019-01-12T08:16:48.895Z,32.33
2019-01-12T08:18:57.104Z,32.02
2019-01-12T08:21:04.276Z,31.84
2019-01-12T08:23:11.901Z,32.05
2019-01-12T08:25:19.277Z,31.96
2019-01-12T08:27:26.389Z,32.27
2019-01-12T08:29:33.604Z,32.43
2019-01-12T08:31:42.457Z,32.40
2019-01-12T08:33:49.966Z,32.37
2019-01-12T08:35:57.777Z,32.50
2019-01-12T08:38:05.171Z,32.49
2019-01-12T08:40:13.448Z,32.55
2019-01-12T08:42:20.740Z,32.66
2019-01-12T08:44:28.642Z,32.48
2019-01-12T08:46:35.923Z,32.49
2019-01-12T08:48:47.448Z,32.31
2019-01-12T08:50:54.634Z,32.29
2019-01-12T08:53:02.012Z,32.48
2019-01-12T08:55:10.108Z,32.70
2019-01-12T08:57:17.561Z,32.96
2019-01-12T08:59:26.750Z,32.29
2019-01-12T09:01:34.142Z,32.19
2019-01-12T09:03:41.226Z,32.52
2019-01-12T09:05:48.368Z,32.51
2019-01-12T09:07:55.679Z,32.63
2019-01-12T09:10:02.981Z,32.55
2019-01-12T09:12:10.438Z,32.55
2019-01-12T09:14:17.551Z,32.19
2019-01-12T09:16:24.805Z,32.14
2019-01-12T09:18:32.006Z,31.85
2019-01-12T09:20:39.409Z,32.25
2019-01-12T09:22:46.696Z,32.43
2019-01-12T09:24:54.815Z,32.41
2019-01-12T09:27:02.300Z,32.36
2019-01-12T09:29:09.639Z,32.46
2019-01-12T09:31:16.736Z,32.56
2019-01-12T09:33:24.123Z,32.46
2019-01-12T09:35:31.526Z,32.33
2019-01-12T09:37:58.419Z,32.43
2019-01-12T09:40:06.404Z,32.87
2019-01-12T09:42:13.784Z,32.91
2019-01-12T09:44:20.807Z,32.89
2019-01-12T09:46:28.066Z,32.72
2019-01-12T09:48:35.193Z,32.71
2019-01-12T09:50:42.234Z,32.95
2019-01-12T09:52:50.157Z,33.16
2019-01-12T09:54:57.375Z,33.08
2019-01-12T09:57:04.728Z,32.69
2019-01-12T09:59:11.837Z,32.40
2019-01-12T10:01:19.065Z,32.84
2019-01-12T10:03:26.267Z,32.96
2019-01-12T10:05:34.435Z,32.42
2019-01-12T10:07:40.485Z,32.16
2019-01-12T10:09:47.769Z,32.68
2019-01-12T10:11:55.171Z,32.42
2019-01-12T10:14:02.302Z,32.32
2019-01-12T10:16:10.113Z,32.61
2019-01-12T10:18:17.399Z,32.81
2019-01-12T10:20:24.795Z,32.72
2019-01-12T10:22:32.153Z,32.83
2019-01-12T10:24:39.601Z,32.71
2019-01-12T10:26:47.424Z,33.03
2019-01-12T10:28:54.631Z,32.77
2019-01-12T10:31:02.172Z,32.66
2019-01-12T10:33:09.476Z,33.19
2019-01-12T10:35:17.086Z,33.21
2019-01-12T10:37:24.235Z,33.60
2019-01-12T10:39:31.499Z,32.71
2019-01-12T10:41:38.974Z,32.74
2019-01-12T10:43:46.182Z,32.68
2019-01-12T10:45:53.279Z,32.99
2019-01-12T10:48:00.519Z,33.18
2019-01-12T10:50:09.839Z,33.21
2019-01-12T10:52:17.198Z,32.81
2019-01-12T10:54:24.574Z,32.59
2019-01-12T10:56:31.708Z,32.75
2019-01-12T10:58:38.970Z,32.89
2019-01-12T11:00:46.244Z,33.08
2019-01-12T11:02:53.580Z,33.14
2019-01-12T11:05:00.988Z,33.24
2019-01-12T11:07:08.955Z,33.33
2019-01-12T11:09:17.242Z,33.24
2019-01-12T11:11:24.475Z,33.39
2019-01-12T11:13:31.709Z,33.23
2019-01-12T11:15:38.780Z,33.45
2019-01-12T11:17:46.142Z,33.51
2019-01-12T11:19:53.997Z,33.49
2019-01-12T11:22:01.261Z,33.08
2019-01-12T11:24:08.721Z,33.56
2019-01-12T11:26:16.041Z,33.63
2019-01-12T11:28:23.795Z,33.48
2019-01-12T11:30:31.673Z,33.49
2019-01-12T11:32:39.003Z,33.29
2019-01-12T11:34:47.677Z,33.63
2019-01-12T11:36:55.067Z,33.57
2019-01-12T11:39:02.202Z,32.96
2019-01-12T11:41:10.075Z,33.00
2019-01-12T11:43:17.348Z,33.42
2019-01-12T11:45:26.149Z,33.09
2019-01-12T11:47:33.380Z,33.16
2019-01-12T11:49:41.426Z,32.87
2019-01-12T11:51:48.745Z,32.75
2019-01-12T11:53:56.138Z,32.84
2019-01-12T11:56:03.204Z,32.58
2019-01-12T11:58:10.410Z,32.53
2019-01-12T12:00:28.852Z,32.45
2019-01-12T12:02:37.818Z,32.43
2019-01-12T12:04:45.189Z,32.26
2019-01-12T12:06:52.490Z,32.29
2019-01-12T12:08:59.906Z,32.11
2019-01-12T12:11:07.344Z,32.23
2019-01-12T12:13:14.479Z,32.20
2019-01-12T12:15:21.971Z,32.55
2019-01-12T12:17:30.001Z,33.28
2019-01-12T12:19:37.246Z,33.86
2019-01-12T12:21:44.405Z,33.00
2019-01-12T12:23:52.224Z,33.13
2019-01-12T12:25:59.523Z,33.21
2019-01-12T12:28:06.828Z,33.32
2019-01-12T12:30:17.664Z,33.22
2019-01-12T12:32:25.556Z,33.38
2019-01-12T12:34:32.888Z,33.60
2019-01-12T12:36:40.356Z,32.90
2019-01-12T12:38:47.408Z,33.18
2019-01-12T12:40:55.304Z,33.05
2019-01-12T12:43:02.452Z,33.23
2019-01-12T12:45:12.472Z,33.54
2019-01-12T12:47:20.417Z,33.45
2019-01-12T12:49:27.758Z,33.25
2019-01-12T12:51:35.173Z,33.09
2019-01-12T12:53:42.528Z,32.90
2019-01-12T12:55:49.707Z,32.84
2019-01-12T12:57:56.915Z,32.82
2019-01-12T13:00:04.225Z,32.84
2019-01-12T13:02:11.585Z,32.76
2019-01-12T13:04:18.946Z,32.68
2019-01-12T13:06:26.066Z,32.64
2019-01-12T13:08:32.983Z,32.87
2019-01-12T13:10:40.534Z,32.78
2019-01-12T13:12:48.529Z,32.69
2019-01-12T13:14:55.642Z,32.61
2019-01-12T13:17:04.187Z,32.55
2019-01-12T13:19:11.543Z,32.53
2019-01-12T13:21:19.849Z,32.45
2019-01-12T13:23:28.240Z,32.42
2019-01-12T13:25:35.709Z,32.39
2019-01-12T13:27:42.898Z,32.45
2019-01-12T13:29:50.153Z,32.41
2019-01-12T13:31:57.594Z,32.37
2019-01-12T13:34:04.844Z,32.10
2019-01-12T13:36:13.792Z,32.17
2019-01-12T13:38:21.149Z,32.16
2019-01-12T13:40:29.612Z,32.15
2019-01-12T13:42:37.069Z,32.52
2019-01-12T13:44:44.938Z,32.58
2019-01-12T13:46:52.107Z,32.87
2019-01-12T13:48:59.487Z,33.09
2019-01-12T13:51:06.932Z,33.34
2019-01-12T13:53:14.131Z,33.36
2019-01-12T13:55:21.356Z,33.71
2019-01-12T13:57:28.652Z,33.69
2019-01-12T13:59:35.991Z,34.09
2019-01-12T14:01:44.258Z,33.43
2019-01-12T14:03:52.088Z,32.99
2019-01-12T14:05:59.992Z,33.11
2019-01-12T14:08:08.936Z,33.71
2019-01-12T14:10:18.246Z,33.93
2019-01-12T14:12:25.634Z,33.51
2019-01-12T14:14:33.121Z,33.54
2019-01-12T14:16:40.345Z,33.61
2019-01-12T14:18:48.194Z,33.42
2019-01-12T14:20:55.683Z,33.38
2019-01-12T14:23:03.610Z,33.08
2019-01-12T14:25:11.379Z,33.32
2019-01-12T14:27:18.683Z,33.32
2019-01-12T14:29:26.006Z,33.43
2019-01-12T14:31:33.386Z,33.56
2019-01-12T14:33:40.704Z,33.97
2019-01-12T14:35:47.950Z,34.25
2019-01-12T14:37:55.999Z,34.59
2019-01-12T14:40:03.386Z,34.49
2019-01-12T14:42:10.894Z,34.24
2019-01-12T14:44:18.004Z,34.30
2019-01-12T14:46:25.380Z,34.56
2019-01-12T14:48:32.737Z,34.24
2019-01-12T14:50:39.791Z,33.64
2019-01-12T14:52:47.234Z,33.53
2019-01-12T14:54:54.864Z,33.89
2019-01-12T14:57:02.085Z,34.03
2019-01-12T14:59:10.216Z,33.94
2019-01-12T15:01:18.147Z,34.11
2019-01-12T15:03:25.476Z,33.74
2019-01-12T15:05:36.036Z,33.79
2019-01-12T15:07:43.632Z,33.79
2019-01-12T15:09:50.893Z,33.75
2019-01-12T15:11:59.165Z,33.81
2019-01-12T15:14:06.756Z,34.16
2019-01-12T15:16:14.915Z,34.32
2019-01-12T15:18:22.227Z,34.35
2019-01-12T15:20:32.683Z,34.28
2019-01-12T15:22:40.093Z,34.13
2019-01-12T15:24:47.431Z,34.24
2019-01-12T15:26:54.608Z,34.27
2019-01-12T15:29:01.851Z,34.19
2019-01-12T15:31:09.025Z,33.74
2019-01-12T15:33:17.013Z,33.64
2019-01-12T15:35:25.184Z,33.57
2019-01-12T15:37:43.464Z,34.30
2019-01-12T15:39:50.927Z,33.84
2019-01-12T15:41:59.832Z,34.46
2019-01-12T15:44:07.293Z,34.16
2019-01-12T15:46:14.640Z,33.55
2019-01-12T15:48:22.177Z,34.03
2019-01-12T15:50:30.076Z,33.54
2019-01-12T15:52:37.317Z,34.36
2019-01-12T15:54:44.474Z,33.85
2019-01-12T15:56:51.845Z,33.97
2019-01-12T15:58:59.734Z,34.00
2019-01-12T16:01:07.073Z,34.11
2019-01-12T16:03:14.599Z,34.14
2019-01-12T16:05:22.067Z,34.18
2019-01-12T16:07:30.268Z,34.51
2019-01-12T16:09:37.762Z,33.98
2019-01-12T16:11:45.163Z,35.31
2019-01-12T16:13:52.398Z,34.32
2019-01-12T16:15:59.765Z,34.28
2019-01-12T16:18:07.422Z,34.10
2019-01-12T16:20:20.305Z,34.10
2019-01-12T16:22:28.395Z,35.21
2019-01-12T16:24:35.896Z,34.71
2019-01-12T16:26:43.475Z,36.91
2019-01-12T16:28:50.870Z,36.19
2019-01-12T16:30:58.309Z,35.90
2019-01-12T16:33:06.161Z,37.25
2019-01-12T16:35:14.635Z,33.97
2019-01-12T16:37:24.133Z,33.39
2019-01-12T16:39:35.067Z,33.29
2019-01-12T16:41:46.202Z,33.76
2019-01-12T16:43:53.816Z,34.51
2019-01-12T16:46:03.300Z,33.73
2019-01-12T16:48:11.645Z,33.81
2019-01-12T16:50:19.390Z,33.96
2019-01-12T16:52:26.851Z,33.35
2019-01-12T16:54:34.436Z,32.92
2019-01-12T16:56:41.690Z,33.71
2019-01-12T16:58:48.867Z,33.35
2019-01-12T17:00:56.799Z,33.02
2019-01-12T17:03:04.559Z,33.16
2019-01-12T17:05:12.647Z,33.92
2019-01-12T17:07:20.082Z,33.89
